Time;durP1;ratioP1;P1;durP2;ratioP2;P2;SDS_P1;SDS_P2;PMS_P1;PMS_P2;Temp;Humidity;BMP_temperature;BMP_pressure;BME280_temperature;BME280_humidity;BME280_pressure;Samples;Min_cycle;Max_cycle;Signal;HPM_P1;HPM_P2
2022/04/15 00:02:22;;;;;;;8.70;7.57;;;;;;;;;;4999823;28;20323;-59
2022/04/15 00:04:47;;;;;;;10.40;8.23;;;;;;;;;;5003324;28;21070;-59
2022/04/15 00:07:13;;;;;;;10.03;7.67;;;;;;;;;;4997485;28;20257;-60
2022/04/15 00:09:39;;;;;;;9.77;8.20;;;;;;;;;;4978188;28;21102;-60
2022/04/15 00:12:17;;;;;;;8.80;7.90;;;;;;;;;;4978530;28;20193;-59
2022/04/15 00:14:43;;;;;;;8.80;7.90;;;;;;;;;;4982707;28;20603;-59
2022/04/15 00:17:09;;;;;;;11.80;8.80;;;;;;;;;;4988271;28;20729;-59
2022/04/15 00:19:36;;;;;;;10.47;8.60;;;;;;;;;;4994259;28;20213;-60
2022/04/15 00:22:02;;;;;;;11.50;8.70;;;;;;;;;;4990705;28;20651;-59
2022/04/15 00:24:28;;;;;;;9.50;8.23;;;;;;;;;;4994948;28;20198;-60
2022/04/15 00:26:54;;;;;;;13.60;8.87;;;;;;;;;;4997747;28;20277;-59
2022/04/15 00:29:20;;;;;;;11.07;8.37;;;;;;;;;;5001640;28;20272;-60
2022/04/15 00:31:46;;;;;;;12.93;9.10;;;;;;;;;;5002963;28;20205;-60
2022/04/15 00:34:12;;;;;;;9.87;8.27;;;;;;;;;;4995405;28;20282;-60
2022/04/15 00:36:37;;;;;;;14.30;9.27;;;;;;;;;;4995311;28;20204;-60
2022/04/15 00:39:03;;;;;;;10.40;9.23;;;;;;;;;;4999086;28;20198;-60
2022/04/15 00:41:29;;;;;;;10.37;9.03;;;;;;;;;;5002148;28;20282;-60
2022/04/15 00:43:56;;;;;;;11.87;9.20;;;;;;;;;;5011859;28;27826;-59
2022/04/15 00:46:22;;;;;;;12.23;9.27;;;;;;;;;;5000417;28;20198;-60
2022/04/15 00:48:47;;;;;;;11.47;9.67;;;;;;;;;;4989917;28;20338;-60
2022/04/15 00:51:13;;;;;;;11.83;8.40;;;;;;;;;;5001572;28;20197;-60
2022/04/15 00:53:40;;;;;;;10.43;8.47;;;;;;;;;;4999278;28;20608;-60
2022/04/15 00:56:06;;;;;;;11.80;8.73;;;;;;;;;;4995074;28;20197;-59
2022/04/15 00:58:32;;;;;;;12.07;8.50;;;;;;;;;;4997490;28;20577;-60
2022/04/15 01:00:58;;;;;;;13.77;9.90;;;;;;;;;;4998431;28;20216;-59
2022/04/15 01:03:24;;;;;;;11.67;9.93;;;;;;;;;;5007781;28;20197;-60
2022/04/15 01:05:50;;;;;;;10.90;9.27;;;;;;;;;;5006743;28;20201;-60
2022/04/15 01:08:17;;;;;;;11.97;9.03;;;;;;;;;;5009920;28;20291;-59
2022/04/15 01:10:43;;;;;;;11.83;9.07;;;;;;;;;;5000040;28;20280;-60
2022/04/15 01:13:09;;;;;;;12.00;8.93;;;;;;;;;;5010102;28;20707;-60
2022/04/15 01:15:35;;;;;;;12.23;8.73;;;;;;;;;;5001932;28;20225;-60
2022/04/15 01:18:01;;;;;;;12.60;9.33;;;;;;;;;;5007502;28;20194;-60
2022/04/15 01:20:27;;;;;;;13.00;9.70;;;;;;;;;;5001331;28;20618;-60
2022/04/15 01:23:06;;;;;;;11.57;9.87;;;;;;;;;;5001949;28;20216;-60
2022/04/15 01:25:32;;;;;;;11.97;10.03;;;;;;;;;;5004647;28;20592;-59
2022/04/15 01:27:59;;;;;;;13.10;9.50;;;;;;;;;;5005208;28;20394;-60
2022/04/15 01:30:24;;;;;;;14.13;9.93;;;;;;;;;;5001471;28;20599;-60
2022/04/15 01:32:50;;;;;;;14.30;10.70;;;;;;;;;;5003928;28;20193;-60
2022/04/15 01:35:17;;;;;;;14.07;10.33;;;;;;;;;;5002195;28;20827;-59
2022/04/15 01:37:43;;;;;;;13.07;10.37;;;;;;;;;;5004131;28;20575;-60
2022/04/15 01:40:09;;;;;;;14.03;10.43;;;;;;;;;;5001438;28;20837;-59
2022/04/15 01:42:36;;;;;;;15.83;10.97;;;;;;;;;;5003134;28;20721;-61
2022/04/15 01:45:02;;;;;;;16.13;10.57;;;;;;;;;;5005282;28;20193;-60
2022/04/15 01:47:28;;;;;;;13.30;10.93;;;;;;;;;;4999765;28;20213;-60
2022/04/15 01:49:54;;;;;;;14.57;10.27;;;;;;;;;;4985607;28;20276;-59
2022/04/15 01:52:20;;;;;;;14.60;10.77;;;;;;;;;;4982668;28;20200;-59
2022/04/15 01:54:46;;;;;;;15.37;11.90;;;;;;;;;;4989386;28;22665;-60
2022/04/15 01:57:12;;;;;;;13.60;11.90;;;;;;;;;;4977488;28;20200;-60
2022/04/15 01:59:38;;;;;;;12.90;11.00;;;;;;;;;;4981572;28;20213;-60
2022/04/15 02:02:05;;;;;;;13.13;10.70;;;;;;;;;;5001602;28;20276;-60
2022/04/15 02:04:31;;;;;;;15.07;11.67;;;;;;;;;;5005500;28;20190;-60
2022/04/15 02:06:57;;;;;;;14.57;11.97;;;;;;;;;;5004070;28;20559;-60
2022/04/15 02:09:23;;;;;;;14.67;11.70;;;;;;;;;;4999590;28;20199;-60
2022/04/15 02:11:49;;;;;;;14.97;11.73;;;;;;;;;;5002915;28;20583;-60
2022/04/15 02:14:16;;;;;;;16.50;12.20;;;;;;;;;;5003055;28;20200;-60
2022/04/15 02:16:43;;;;;;;17.17;11.73;;;;;;;;;;5003218;28;20646;-59
2022/04/15 02:19:09;;;;;;;15.67;11.40;;;;;;;;;;5001811;28;20194;-59
2022/04/15 02:21:35;;;;;;;16.43;12.33;;;;;;;;;;5006068;28;20212;-59
2022/04/15 02:24:01;;;;;;;16.63;12.83;;;;;;;;;;5003541;28;20221;-59
2022/04/15 02:26:27;;;;;;;15.40;12.37;;;;;;;;;;5000881;28;20207;-59
2022/04/15 02:28:53;;;;;;;16.40;12.43;;;;;;;;;;5002761;28;20232;-59
2022/04/15 02:31:19;;;;;;;17.03;13.10;;;;;;;;;;5001311;28;20189;-59
2022/04/15 02:33:45;;;;;;;16.67;11.80;;;;;;;;;;4999042;28;20202;-58
2022/04/15 02:36:11;;;;;;;20.50;12.10;;;;;;;;;;4981700;28;20937;-59
2022/04/15 02:38:36;;;;;;;16.37;13.03;;;;;;;;;;5003339;28;21060;-60
2022/04/15 02:41:03;;;;;;;16.40;11.87;;;;;;;;;;4998078;28;20216;-58
2022/04/15 02:43:31;;;;;;;16.67;13.03;;;;;;;;;;4997691;28;20211;-59
2022/04/15 02:46:04;;;;;;;16.83;12.33;;;;;;;;;;4987229;28;20662;-58
2022/04/15 02:48:30;;;;;;;16.50;13.27;;;;;;;;;;4978026;28;20541;-58
2022/04/15 02:50:56;;;;;;;17.73;12.93;;;;;;;;;;4984960;28;20220;-58
2022/04/15 02:53:22;;;;;;;16.93;13.47;;;;;;;;;;5012212;28;20208;-61
2022/04/15 02:55:48;;;;;;;16.53;12.83;;;;;;;;;;5004112;28;20662;-60
2022/04/15 02:58:14;;;;;;;15.97;13.00;;;;;;;;;;5000741;28;20232;-61
2022/04/15 03:00:40;;;;;;;18.37;13.40;;;;;;;;;;4988065;28;20516;-60
2022/04/15 03:03:06;;;;;;;16.67;12.93;;;;;;;;;;4996747;28;20240;-60
2022/04/15 03:05:32;;;;;;;14.17;11.90;;;;;;;;;;5001379;28;20238;-61
2022/04/15 03:07:58;;;;;;;19.83;14.13;;;;;;;;;;5003295;28;20652;-60
2022/04/15 03:10:24;;;;;;;18.17;13.53;;;;;;;;;;5004143;28;20809;-60
2022/04/15 03:12:50;;;;;;;15.73;12.70;;;;;;;;;;5000290;28;20196;-60
2022/04/15 03:15:16;;;;;;;17.07;13.00;;;;;;;;;;4982245;28;20197;-60
2022/04/15 03:17:42;;;;;;;17.27;13.80;;;;;;;;;;4988873;28;20651;-60
2022/04/15 03:20:08;;;;;;;18.53;13.23;;;;;;;;;;4995436;28;20247;-60
2022/04/15 03:22:38;;;;;;;16.53;13.40;;;;;;;;;;4983112;28;20193;-60
2022/04/15 03:25:04;;;;;;;19.23;13.50;;;;;;;;;;4985308;28;20198;-60
2022/04/15 03:27:30;;;;;;;15.53;13.03;;;;;;;;;;4991413;28;20211;-60
2022/04/15 03:29:56;;;;;;;15.73;12.27;;;;;;;;;;5000232;28;20606;-61
2022/04/15 03:32:22;;;;;;;16.57;13.43;;;;;;;;;;5002012;28;20225;-61
2022/04/15 03:34:48;;;;;;;18.37;14.20;;;;;;;;;;5004287;28;20204;-60
2022/04/15 03:37:14;;;;;;;17.53;13.63;;;;;;;;;;4999891;28;20186;-60
2022/04/15 03:39:40;;;;;;;16.80;13.53;;;;;;;;;;5000706;28;20220;-60
2022/04/15 03:42:07;;;;;;;17.90;14.87;;;;;;;;;;5005994;28;20272;-60
2022/04/15 03:44:33;;;;;;;17.30;13.03;;;;;;;;;;4979747;28;20427;-60
2022/04/15 03:46:59;;;;;;;15.07;13.07;;;;;;;;;;4982129;28;20199;-60
2022/04/15 03:49:25;;;;;;;19.73;14.20;;;;;;;;;;4985861;28;20196;-60
2022/04/15 03:51:51;;;;;;;18.57;14.20;;;;;;;;;;4987224;28;20228;-60
2022/04/15 03:54:17;;;;;;;16.90;13.47;;;;;;;;;;4983883;28;20197;-60
2022/04/15 03:56:43;;;;;;;16.70;13.60;;;;;;;;;;4982193;28;20225;-59
2022/04/15 03:59:09;;;;;;;18.03;14.57;;;;;;;;;;4977694;28;20284;-60
2022/04/15 04:01:35;;;;;;;20.00;14.13;;;;;;;;;;4977304;28;20710;-60
2022/04/15 04:04:00;;;;;;;18.20;13.70;;;;;;;;;;5000059;28;20543;-60
2022/04/15 04:06:27;;;;;;;21.07;13.80;;;;;;;;;;4992334;28;20213;-60
2022/04/15 04:08:52;;;;;;;18.53;13.90;;;;;;;;;;4999783;28;20193;-59
2022/04/15 04:11:19;;;;;;;20.93;15.00;;;;;;;;;;5000225;28;20217;-60
2022/04/15 04:13:45;;;;;;;21.63;15.07;;;;;;;;;;5000216;28;20950;-60
2022/04/15 04:16:12;;;;;;;18.77;15.07;;;;;;;;;;5000171;28;20242;-60
2022/04/15 04:18:38;;;;;;;19.57;13.57;;;;;;;;;;4992662;28;20250;-60
2022/04/15 04:21:04;;;;;;;17.67;14.47;;;;;;;;;;4997913;28;20659;-60
2022/04/15 04:23:30;;;;;;;17.93;14.20;;;;;;;;;;4996777;28;20195;-59
2022/04/15 04:25:56;;;;;;;19.13;14.40;;;;;;;;;;4992373;28;20635;-60
2022/04/15 04:28:22;;;;;;;18.30;14.17;;;;;;;;;;5006721;28;20196;-61
2022/04/15 04:30:48;;;;;;;19.17;14.83;;;;;;;;;;4998499;28;20240;-59
2022/04/15 04:33:14;;;;;;;16.87;13.80;;;;;;;;;;5003412;28;20185;-60
2022/04/15 04:35:39;;;;;;;20.17;15.13;;;;;;;;;;4986825;28;20197;-60
2022/04/15 04:38:06;;;;;;;19.57;15.27;;;;;;;;;;4986977;28;20523;-60
2022/04/15 04:40:35;;;;;;;21.27;14.83;;;;;;;;;;4995132;28;20439;-60
2022/04/15 04:43:01;;;;;;;18.17;14.60;;;;;;;;;;4990933;28;20651;-59
2022/04/15 04:45:27;;;;;;;20.40;14.73;;;;;;;;;;4979310;28;20226;-60
2022/04/15 04:47:53;;;;;;;20.13;15.80;;;;;;;;;;4981253;28;20196;-60
2022/04/15 04:50:19;;;;;;;18.47;15.00;;;;;;;;;;4992612;28;20296;-61
2022/04/15 04:52:46;;;;;;;19.70;15.17;;;;;;;;;;4984487;28;20265;-60
2022/04/15 04:55:12;;;;;;;19.57;15.37;;;;;;;;;;4968993;28;20208;-60
2022/04/15 04:57:45;;;;;;;20.83;15.23;;;;;;;;;;4969737;28;20210;-60
2022/04/15 05:00:11;;;;;;;20.33;16.53;;;;;;;;;;4973448;28;20212;-60
2022/04/15 05:02:37;;;;;;;22.23;15.57;;;;;;;;;;4987795;28;20185;-59
2022/04/15 05:05:03;;;;;;;18.73;15.00;;;;;;;;;;4993409;28;20430;-61
2022/04/15 05:07:29;;;;;;;18.27;15.80;;;;;;;;;;4997418;28;20221;-61
2022/04/15 05:09:55;;;;;;;18.93;15.60;;;;;;;;;;4998163;28;20653;-61
2022/04/15 05:12:21;;;;;;;21.23;15.80;;;;;;;;;;4983164;28;20192;-60
2022/04/15 05:14:47;;;;;;;21.27;15.30;;;;;;;;;;4996183;28;20661;-61
2022/04/15 05:17:13;;;;;;;20.90;15.03;;;;;;;;;;4999076;28;20193;-61
2022/04/15 05:19:39;;;;;;;19.27;14.37;;;;;;;;;;4998043;28;20205;-60
2022/04/15 05:22:05;;;;;;;19.17;15.20;;;;;;;;;;4995467;28;20213;-60
2022/04/15 05:24:31;;;;;;;19.23;14.97;;;;;;;;;;4985987;28;20244;-59
2022/04/15 05:26:58;;;;;;;20.63;14.80;;;;;;;;;;4977398;28;20186;-60
2022/04/15 05:29:24;;;;;;;18.73;13.87;;;;;;;;;;4976143;28;20324;-57
2022/04/15 05:31:50;;;;;;;20.17;13.97;;;;;;;;;;4971913;28;21798;-59
2022/04/15 05:34:16;;;;;;;18.50;15.53;;;;;;;;;;4981087;28;20193;-56
2022/04/15 05:36:42;;;;;;;20.23;14.00;;;;;;;;;;4983073;28;20853;-58
2022/04/15 05:39:07;;;;;;;19.47;15.23;;;;;;;;;;5014532;28;20209;-57
2022/04/15 05:41:33;;;;;;;20.47;15.40;;;;;;;;;;5013241;28;20220;-57
2022/04/15 05:44:03;;;;;;;22.70;15.40;;;;;;;;;;5012973;28;20910;-58
2022/04/15 05:46:29;;;;;;;21.37;15.43;;;;;;;;;;5012303;28;20272;-57
2022/04/15 05:48:55;;;;;;;16.90;14.97;;;;;;;;;;5016198;28;20288;-58
2022/04/15 05:51:21;;;;;;;22.20;16.67;;;;;;;;;;5012753;28;20713;-57
2022/04/15 05:53:47;;;;;;;21.37;15.63;;;;;;;;;;5015387;28;20194;-57
2022/04/15 05:56:13;;;;;;;22.37;16.67;;;;;;;;;;5011217;28;20201;-58
2022/04/15 05:58:40;;;;;;;20.00;16.43;;;;;;;;;;5016860;28;20200;-57
2022/04/15 06:01:09;;;;;;;17.93;15.83;;;;;;;;;;5012154;28;20213;-57
2022/04/15 06:03:35;;;;;;;20.90;16.47;;;;;;;;;;5017011;28;20197;-57
2022/04/15 06:06:01;;;;;;;20.47;16.27;;;;;;;;;;5014439;28;20701;-57
2022/04/15 06:08:27;;;;;;;21.00;16.43;;;;;;;;;;5017075;28;20189;-57
2022/04/15 06:10:53;;;;;;;18.63;15.87;;;;;;;;;;5013389;28;20204;-58
2022/04/15 06:13:25;;;;;;;18.17;16.20;;;;;;;;;;5008307;28;20765;-57
2022/04/15 06:15:53;;;;;;;19.10;15.33;;;;;;;;;;5012701;28;20189;-57
2022/04/15 06:18:21;;;;;;;18.07;16.17;;;;;;;;;;5014305;28;20189;-57
2022/04/15 06:20:48;;;;;;;19.03;16.13;;;;;;;;;;5015137;28;20213;-58
2022/04/15 06:23:14;;;;;;;19.03;16.03;;;;;;;;;;5011938;28;20193;-57
2022/04/15 06:25:40;;;;;;;18.10;15.33;;;;;;;;;;5014273;28;20666;-58
2022/04/15 06:28:06;;;;;;;21.27;16.73;;;;;;;;;;5015687;28;20605;-57
2022/04/15 06:30:32;;;;;;;19.13;15.30;;;;;;;;;;5014710;28;20743;-57
2022/04/15 06:32:58;;;;;;;19.00;15.30;;;;;;;;;;5014458;28;20199;-57
2022/04/15 06:35:24;;;;;;;19.37;15.67;;;;;;;;;;5013504;28;20192;-57
2022/04/15 06:37:50;;;;;;;17.00;14.70;;;;;;;;;;5012413;28;20202;-58
2022/04/15 06:40:16;;;;;;;16.53;14.80;;;;;;;;;;5013507;28;20219;-57
2022/04/15 06:42:42;;;;;;;17.70;14.63;;;;;;;;;;5011641;28;20216;-57
2022/04/15 06:45:09;;;;;;;15.90;13.30;;;;;;;;;;5016543;28;20192;-57
2022/04/15 06:47:35;;;;;;;17.53;14.00;;;;;;;;;;5012677;28;20189;-57
2022/04/15 06:50:01;;;;;;;16.37;13.57;;;;;;;;;;5014409;28;20213;-58
2022/04/15 06:52:27;;;;;;;15.20;13.60;;;;;;;;;;5015602;28;20197;-58
2022/04/15 06:54:53;;;;;;;18.43;14.47;;;;;;;;;;5011962;28;20189;-57
2022/04/15 06:57:20;;;;;;;15.60;12.80;;;;;;;;;;5014526;28;20229;-57
2022/04/15 06:59:45;;;;;;;15.20;12.63;;;;;;;;;;5011652;28;20577;-57
2022/04/15 07:02:11;;;;;;;16.23;13.23;;;;;;;;;;5009457;28;20189;-57
2022/04/15 07:04:37;;;;;;;14.10;12.70;;;;;;;;;;5013681;28;20283;-58
2022/04/15 07:07:03;;;;;;;15.40;13.37;;;;;;;;;;5013217;28;20255;-57
2022/04/15 07:09:29;;;;;;;18.03;14.33;;;;;;;;;;5014843;28;20190;-57
2022/04/15 07:11:56;;;;;;;17.83;15.03;;;;;;;;;;5013433;28;20192;-57
2022/04/15 07:14:22;;;;;;;18.33;16.37;;;;;;;;;;5004452;28;20678;-58
2022/04/15 07:16:48;;;;;;;22.13;18.80;;;;;;;;;;5012497;28;20197;-57
2022/04/15 07:19:14;;;;;;;25.00;20.60;;;;;;;;;;5011872;28;20236;-58
2022/04/15 07:21:41;;;;;;;28.13;22.97;;;;;;;;;;5012478;28;20204;-58
2022/04/15 07:24:07;;;;;;;31.83;24.93;;;;;;;;;;5012664;28;20738;-58
2022/04/15 07:26:33;;;;;;;36.10;26.37;;;;;;;;;;5010031;28;20299;-58
2022/04/15 07:28:59;;;;;;;40.53;29.03;;;;;;;;;;5015514;28;20232;-58
2022/04/15 07:31:25;;;;;;;44.60;32.40;;;;;;;;;;5010697;28;20466;-57
2022/04/15 07:33:51;;;;;;;48.10;34.17;;;;;;;;;;5013822;28;20614;-57
2022/04/15 07:39:03;;;;;;;58.13;38.73;;;;;;;;;;5013374;28;20200;-57
2022/04/15 07:41:29;;;;;;;61.47;41.87;;;;;;;;;;5012894;28;20643;-58
2022/04/15 07:43:55;;;;;;;63.53;42.37;;;;;;;;;;5012387;28;20200;-58
2022/04/15 07:46:21;;;;;;;62.87;42.57;;;;;;;;;;5013841;28;20189;-58
2022/04/15 07:48:47;;;;;;;62.10;40.50;;;;;;;;;;5013059;28;20185;-58
2022/04/15 07:51:13;;;;;;;65.03;42.13;;;;;;;;;;5011839;28;20448;-58
2022/04/15 07:53:39;;;;;;;67.63;43.17;;;;;;;;;;5014237;28;20204;-58
2022/04/15 07:56:05;;;;;;;70.87;44.83;;;;;;;;;;5013127;28;20223;-57
2022/04/15 07:58:31;;;;;;;70.00;44.07;;;;;;;;;;5013165;28;20193;-58
2022/04/15 08:01:00;;;;;;;66.43;43.20;;;;;;;;;;5015628;28;20678;-57
2022/04/15 08:03:29;;;;;;;68.67;43.50;;;;;;;;;;5010458;28;20192;-58
2022/04/15 08:05:55;;;;;;;65.73;44.43;;;;;;;;;;5005643;28;20201;-57
2022/04/15 08:08:21;;;;;;;67.40;44.13;;;;;;;;;;5015526;28;20877;-57
2022/04/15 08:10:51;;;;;;;73.40;46.30;;;;;;;;;;5015192;28;20235;-58
2022/04/15 08:13:17;;;;;;;67.83;45.87;;;;;;;;;;5017199;28;20316;-57
2022/04/15 08:15:43;;;;;;;69.80;43.83;;;;;;;;;;5014986;28;20236;-57
2022/04/15 08:18:09;;;;;;;72.63;45.20;;;;;;;;;;5017180;28;20197;-58
2022/04/15 08:20:34;;;;;;;74.37;46.23;;;;;;;;;;5015950;28;20245;-58
2022/04/15 08:23:00;;;;;;;77.73;46.63;;;;;;;;;;5013268;28;20190;-57
2022/04/15 08:25:26;;;;;;;77.33;47.83;;;;;;;;;;5015649;28;20200;-58
2022/04/15 08:27:52;;;;;;;75.87;46.80;;;;;;;;;;5017560;28;20717;-58
2022/04/15 08:30:18;;;;;;;74.70;47.00;;;;;;;;;;5014898;28;20244;-57
2022/04/15 08:32:50;;;;;;;71.63;44.73;;;;;;;;;;5010798;28;20193;-57
2022/04/15 08:35:16;;;;;;;65.87;43.77;;;;;;;;;;5014631;28;20189;-58
2022/04/15 08:37:42;;;;;;;65.30;44.07;;;;;;;;;;5016076;28;20607;-57
2022/04/15 08:40:09;;;;;;;63.10;41.70;;;;;;;;;;5013506;28;20692;-57
2022/04/15 08:42:35;;;;;;;57.87;39.27;;;;;;;;;;5016717;28;20200;-58
2022/04/15 08:45:01;;;;;;;49.93;34.83;;;;;;;;;;5021725;28;20194;-57
2022/04/15 08:47:28;;;;;;;47.17;32.93;;;;;;;;;;5022036;28;20201;-57
2022/04/15 08:49:54;;;;;;;44.00;29.93;;;;;;;;;;5017171;28;20197;-58
2022/04/15 08:52:20;;;;;;;36.87;26.23;;;;;;;;;;5013881;28;20670;-57
2022/04/15 08:54:46;;;;;;;37.57;26.20;;;;;;;;;;5016061;28;21172;-58
2022/04/15 08:57:12;;;;;;;30.97;23.83;;;;;;;;;;5016656;28;20713;-57
2022/04/15 08:59:41;;;;;;;30.57;22.13;;;;;;;;;;5015553;28;20217;-56
2022/04/15 09:02:07;;;;;;;27.10;21.60;;;;;;;;;;5016314;28;20197;-56
2022/04/15 09:04:33;;;;;;;26.37;20.63;;;;;;;;;;5018985;28;20197;-58
2022/04/15 09:07:00;;;;;;;26.23;20.37;;;;;;;;;;5016586;28;20701;-58
2022/04/15 09:09:30;;;;;;;23.67;18.80;;;;;;;;;;5017629;28;20546;-57
2022/04/15 09:11:58;;;;;;;21.23;18.00;;;;;;;;;;5018170;28;20213;-58
2022/04/15 09:14:25;;;;;;;22.13;18.50;;;;;;;;;;5016638;28;20192;-58
2022/04/15 09:16:51;;;;;;;20.47;17.27;;;;;;;;;;5020798;28;20209;-58
2022/04/15 09:19:17;;;;;;;18.83;16.83;;;;;;;;;;5020540;28;20193;-58
2022/04/15 09:21:49;;;;;;;18.00;16.10;;;;;;;;;;5017416;28;20569;-58
2022/04/15 09:24:17;;;;;;;17.37;15.53;;;;;;;;;;5022308;28;20189;-55
2022/04/15 09:26:45;;;;;;;17.40;15.57;;;;;;;;;;5018029;28;20186;-58
2022/04/15 09:29:12;;;;;;;17.50;15.80;;;;;;;;;;5017755;28;20303;-57
2022/04/15 09:31:38;;;;;;;16.67;15.18;;;;;;;;;;5015014;28;20275;-58
2022/04/15 09:34:06;;;;;;;16.50;14.82;;;;;;;;;;5017884;28;20323;-58
2022/04/15 09:36:33;;;;;;;17.42;14.75;;;;;;;;;;5016321;28;20193;-58
2022/04/15 09:39:10;;;;;;;15.20;13.80;;;;;;;;;;5017083;28;20328;-58
2022/04/15 09:41:36;;;;;;;15.40;14.02;;;;;;;;;;5014615;28;20694;-58
2022/04/15 09:44:02;;;;;;;13.45;12.25;;;;;;;;;;5013200;28;20188;-58
2022/04/15 09:46:30;;;;;;;13.05;11.93;;;;;;;;;;5012442;28;20216;-58
2022/04/15 09:49:06;;;;;;;12.13;11.13;;;;;;;;;;5022056;28;20193;-57
2022/04/15 09:51:36;;;;;;;10.90;10.00;;;;;;;;;;5014958;28;20185;-58
2022/04/15 09:54:03;;;;;;;12.70;11.43;;;;;;;;;;5016724;28;20184;-58
2022/04/15 09:56:30;;;;;;;10.52;9.60;;;;;;;;;;5015979;28;20186;-58
2022/04/15 09:58:56;;;;;;;9.93;8.55;;;;;;;;;;5020784;28;20682;-58
2022/04/15 10:01:23;;;;;;;9.27;8.38;;;;;;;;;;5019850;28;20209;-58
2022/04/15 10:03:49;;;;;;;8.27;7.57;;;;;;;;;;5015151;28;20687;-55
2022/04/15 10:06:15;;;;;;;7.45;6.85;;;;;;;;;;5015321;28;20209;-57
2022/04/15 10:08:42;;;;;;;7.05;6.35;;;;;;;;;;5015426;28;20727;-57
2022/04/15 10:11:08;;;;;;;6.10;5.50;;;;;;;;;;5015552;28;20247;-57
2022/04/15 10:13:35;;;;;;;6.38;5.72;;;;;;;;;;5018467;28;20197;-57
2022/04/15 10:16:01;;;;;;;7.13;6.50;;;;;;;;;;5015091;28;20832;-58
2022/04/15 10:18:27;;;;;;;5.15;4.75;;;;;;;;;;5014489;28;20728;-57
2022/04/15 10:20:53;;;;;;;5.15;4.65;;;;;;;;;;5013410;28;20686;-57
2022/04/15 10:23:19;;;;;;;5.25;4.32;;;;;;;;;;5013841;28;20252;-58
2022/04/15 10:25:46;;;;;;;5.38;3.92;;;;;;;;;;5021785;28;20213;-58
2022/04/15 10:28:19;;;;;;;3.97;3.58;;;;;;;;;;5013909;28;20679;-58
2022/04/15 10:30:51;;;;;;;3.95;3.65;;;;;;;;;;5014442;28;20760;-57
2022/04/15 10:33:39;;;;;;;4.10;3.50;;;;;;;;;;5015685;28;20183;-58
2022/04/15 10:36:12;;;;;;;6.32;4.03;;;;;;;;;;5011883;28;20588;-58
2022/04/15 10:38:38;;;;;;;4.43;4.03;;;;;;;;;;5029437;28;20181;-58
2022/04/15 10:41:16;;;;;;;3.92;3.63;;;;;;;;;;5012606;28;20213;-57
2022/04/15 10:43:55;;;;;;;5.13;4.38;;;;;;;;;;5019588;28;20181;-57
2022/04/15 10:46:25;;;;;;;4.80;4.32;;;;;;;;;;5014444;28;20181;-57
2022/04/15 10:48:51;;;;;;;4.65;4.25;;;;;;;;;;5016168;28;20244;-58
2022/04/15 10:51:25;;;;;;;5.22;4.18;;;;;;;;;;5015487;28;20197;-58
2022/04/15 10:53:51;;;;;;;5.50;4.68;;;;;;;;;;5013138;28;20250;-58
2022/04/15 10:56:18;;;;;;;5.80;4.53;;;;;;;;;;5012650;28;20216;-58
2022/04/15 11:01:50;;;;;;;5.65;4.85;;;;;;;;;;5013564;28;20253;-58
2022/04/15 11:04:15;;;;;;;4.90;4.40;;;;;;;;;;5014778;28;20231;-57
2022/04/15 11:06:41;;;;;;;4.95;4.45;;;;;;;;;;5017496;28;20217;-57
2022/04/15 11:09:15;;;;;;;6.18;5.00;;;;;;;;;;5010151;28;20203;-57
2022/04/15 11:11:41;;;;;;;6.05;5.40;;;;;;;;;;5014467;28;20602;-57
2022/04/15 11:14:11;;;;;;;5.93;5.13;;;;;;;;;;5012993;28;20240;-57
2022/04/15 11:16:40;;;;;;;8.30;4.93;;;;;;;;;;5011888;28;20196;-58
2022/04/15 11:19:06;;;;;;;5.80;5.25;;;;;;;;;;5013499;28;20609;-57
2022/04/15 11:21:33;;;;;;;5.65;5.15;;;;;;;;;;5012863;28;20244;-58
2022/04/15 11:24:04;;;;;;;6.20;5.38;;;;;;;;;;5014729;28;20576;-57
2022/04/15 11:26:30;;;;;;;6.70;5.43;;;;;;;;;;5027563;28;21206;-58
2022/04/15 11:28:57;;;;;;;5.97;5.38;;;;;;;;;;5011803;28;20238;-57
2022/04/15 11:31:23;;;;;;;6.68;5.45;;;;;;;;;;5011307;28;20196;-57
2022/04/15 11:33:49;;;;;;;6.15;5.65;;;;;;;;;;5014121;28;20246;-57
2022/04/15 11:36:15;;;;;;;6.45;5.70;;;;;;;;;;5013046;28;20273;-58
2022/04/15 11:38:43;;;;;;;6.72;5.72;;;;;;;;;;5012790;28;20766;-58
2022/04/15 11:41:10;;;;;;;7.40;6.70;;;;;;;;;;5013332;28;20204;-58
2022/04/15 11:43:36;;;;;;;6.85;6.32;;;;;;;;;;5012641;28;20190;-58
2022/04/15 11:46:01;;;;;;;6.75;6.10;;;;;;;;;;5011304;28;20199;-58
2022/04/15 11:48:27;;;;;;;8.30;7.55;;;;;;;;;;5012383;28;20232;-58
2022/04/15 11:50:54;;;;;;;8.52;7.72;;;;;;;;;;5013799;28;20200;-58
2022/04/15 11:53:20;;;;;;;9.10;8.20;;;;;;;;;;5013776;28;20264;-58
2022/04/15 11:55:50;;;;;;;10.55;8.98;;;;;;;;;;5012079;28;20205;-58
2022/04/15 11:58:16;;;;;;;9.82;8.90;;;;;;;;;;5012017;28;20217;-58
2022/04/15 12:00:43;;;;;;;10.70;9.80;;;;;;;;;;5013050;28;20217;-58
2022/04/15 12:03:12;;;;;;;11.18;10.02;;;;;;;;;;5013253;28;21123;-58
2022/04/15 12:05:38;;;;;;;11.30;10.30;;;;;;;;;;5013004;28;20288;-58
2022/04/15 12:08:06;;;;;;;12.32;11.13;;;;;;;;;;5007244;28;20292;-58
2022/04/15 12:10:32;;;;;;;11.85;10.55;;;;;;;;;;5013864;28;20301;-58
2022/04/15 12:12:58;;;;;;;11.75;10.57;;;;;;;;;;5013529;28;20324;-58
2022/04/15 12:15:28;;;;;;;11.90;10.85;;;;;;;;;;5012958;28;20235;-58
2022/04/15 12:17:54;;;;;;;12.75;11.55;;;;;;;;;;5009095;28;20193;-58
2022/04/15 12:20:20;;;;;;;12.95;11.85;;;;;;;;;;5019755;28;20574;-58
2022/04/15 12:22:46;;;;;;;11.88;10.82;;;;;;;;;;5015027;28;20744;-58
2022/04/15 12:25:15;;;;;;;13.25;11.90;;;;;;;;;;5013210;28;20193;-58
2022/04/15 12:27:44;;;;;;;12.30;11.20;;;;;;;;;;5013737;28;20193;-58
2022/04/15 12:30:10;;;;;;;13.15;12.00;;;;;;;;;;5014396;28;20237;-58
2022/04/15 12:32:38;;;;;;;13.43;12.18;;;;;;;;;;5013224;28;20197;-58
2022/04/15 12:35:11;;;;;;;13.07;11.88;;;;;;;;;;5014930;28;20749;-58
2022/04/15 12:37:38;;;;;;;12.43;11.32;;;;;;;;;;5013632;28;20205;-58
2022/04/15 12:40:10;;;;;;;12.85;11.60;;;;;;;;;;5015189;28;20263;-58
2022/04/15 12:42:37;;;;;;;11.52;10.52;;;;;;;;;;5012661;28;20286;-58
2022/04/15 12:45:22;;;;;;;11.85;10.77;;;;;;;;;;5014968;28;20600;-58
2022/04/15 12:48:04;;;;;;;12.15;10.90;;;;;;;;;;5016783;28;20254;-57
2022/04/15 12:50:33;;;;;;;11.65;10.52;;;;;;;;;;5014918;28;20811;-58
2022/04/15 12:52:59;;;;;;;11.70;10.70;;;;;;;;;;5017624;28;20224;-58
2022/04/15 12:55:26;;;;;;;11.85;10.82;;;;;;;;;;5017147;28;20201;-58
2022/04/15 12:57:52;;;;;;;12.52;11.52;;;;;;;;;;5012195;28;20219;-58
2022/04/15 13:00:18;;;;;;;14.75;12.00;;;;;;;;;;5015703;28;20225;-58
2022/04/15 13:02:44;;;;;;;12.80;11.70;;;;;;;;;;5015578;28;20184;-58
2022/04/15 13:05:10;;;;;;;12.95;11.75;;;;;;;;;;5016038;28;20189;-58
2022/04/15 13:07:36;;;;;;;13.50;12.35;;;;;;;;;;5015784;28;20246;-58
2022/04/15 13:10:02;;;;;;;13.40;12.30;;;;;;;;;;5017945;28;20343;-58
2022/04/15 13:12:28;;;;;;;13.88;12.57;;;;;;;;;;5014015;28;20268;-58
2022/04/15 13:14:54;;;;;;;13.68;12.57;;;;;;;;;;5016756;28;20284;-58
2022/04/15 13:17:20;;;;;;;14.38;13.15;;;;;;;;;;5018286;28;20199;-58
2022/04/15 13:19:47;;;;;;;13.50;12.38;;;;;;;;;;5015321;28;20254;-58
2022/04/15 13:22:13;;;;;;;13.45;12.18;;;;;;;;;;5017086;28;20193;-57
2022/04/15 13:24:39;;;;;;;13.23;12.13;;;;;;;;;;5016765;28;20222;-58
2022/04/15 13:27:05;;;;;;;13.88;12.68;;;;;;;;;;5017463;28;20193;-58
2022/04/15 13:29:34;;;;;;;12.60;11.50;;;;;;;;;;5015906;28;20241;-59
2022/04/15 13:32:00;;;;;;;13.65;12.55;;;;;;;;;;5014506;28;20224;-58
2022/04/15 13:34:26;;;;;;;12.57;11.57;;;;;;;;;;5015920;28;20272;-58
2022/04/15 13:36:52;;;;;;;12.23;11.23;;;;;;;;;;5016378;28;20192;-58
2022/04/15 13:39:18;;;;;;;10.75;9.82;;;;;;;;;;5017916;28;20550;-58
2022/04/15 13:41:44;;;;;;;11.77;10.77;;;;;;;;;;5017454;28;20198;-58
2022/04/15 13:44:12;;;;;;;10.60;9.70;;;;;;;;;;5015834;28;20224;-58
2022/04/15 13:46:38;;;;;;;10.23;9.43;;;;;;;;;;5014899;28;20185;-58
2022/04/15 13:49:04;;;;;;;10.25;9.35;;;;;;;;;;5017637;28;20223;-58
2022/04/15 13:51:31;;;;;;;9.43;8.63;;;;;;;;;;5016342;28;20252;-58
2022/04/15 13:56:44;;;;;;;9.55;8.85;;;;;;;;;;5010690;28;20227;-58
2022/04/15 13:59:10;;;;;;;9.15;8.45;;;;;;;;;;5013641;28;20189;-58
2022/04/15 14:01:39;;;;;;;9.15;8.40;;;;;;;;;;5016048;28;20260;-58
2022/04/15 14:04:09;;;;;;;9.25;8.50;;;;;;;;;;5014742;28;20770;-58
2022/04/15 14:06:36;;;;;;;9.88;9.18;;;;;;;;;;5018039;28;20213;-58
2022/04/15 14:09:01;;;;;;;8.65;7.95;;;;;;;;;;5015161;28;20185;-58
2022/04/15 14:11:28;;;;;;;9.18;8.48;;;;;;;;;;5014355;28;20276;-58
2022/04/15 14:13:58;;;;;;;8.90;8.20;;;;;;;;;;5020895;28;20280;-58
2022/04/15 14:16:24;;;;;;;8.98;8.35;;;;;;;;;;5017002;28;20308;-58
2022/04/15 14:18:49;;;;;;;9.75;9.05;;;;;;;;;;5010223;28;20297;-58
2022/04/15 14:21:16;;;;;;;9.50;8.70;;;;;;;;;;5013758;28;20683;-58
2022/04/15 14:23:43;;;;;;;10.20;9.40;;;;;;;;;;5013163;28;20196;-57
2022/04/15 14:26:10;;;;;;;9.30;8.50;;;;;;;;;;5016143;28;20655;-58
2022/04/15 14:28:36;;;;;;;9.30;8.50;;;;;;;;;;5013277;28;20193;-59
2022/04/15 14:31:03;;;;;;;8.18;7.57;;;;;;;;;;5014732;28;20662;-56